createdAt,value
2023-05-08T00:00:18.920Z,9.79
2023-05-08T00:02:49.411Z,9.80
2023-05-08T00:05:18.645Z,9.70
2023-05-08T00:07:47.716Z,9.67
2023-05-08T00:10:16.946Z,9.54
2023-05-08T00:12:45.986Z,9.50
2023-05-08T00:15:15.162Z,9.70
2023-05-08T00:17:44.454Z,9.45
2023-05-08T00:20:15.698Z,9.36
2023-05-08T00:22:44.752Z,9.57
2023-05-08T00:25:13.708Z,9.51
2023-05-08T00:27:43.148Z,9.53
2023-05-08T00:30:13.362Z,9.74
2023-05-08T00:32:43.137Z,9.69
2023-05-08T00:35:12.597Z,9.73
2023-05-08T00:37:43.880Z,9.68
2023-05-08T00:40:13.978Z,9.56
2023-05-08T00:42:43.485Z,9.68
2023-05-08T00:45:12.928Z,9.58
2023-05-08T00:47:42.533Z,9.76
2023-05-08T00:50:12.435Z,9.51
2023-05-08T00:52:43.148Z,9.55
2023-05-08T00:55:12.418Z,9.37
2023-05-08T00:57:41.808Z,9.56
2023-05-08T01:00:12.362Z,9.56
2023-05-08T01:02:42.039Z,9.59
2023-05-08T01:05:11.269Z,9.53
2023-05-08T01:07:40.265Z,9.43
2023-05-08T01:10:11.844Z,9.45
2023-05-08T01:12:55.640Z,9.50
2023-05-08T01:15:31.046Z,9.23
2023-05-08T01:18:11.827Z,9.40
2023-05-08T01:21:20.263Z,9.41
2023-05-08T01:24:09.643Z,9.36
2023-05-08T01:27:14.658Z,8.91
2023-05-08T01:30:24.799Z,9.43
2023-05-08T01:33:02.748Z,9.15
2023-05-08T01:35:41.225Z,9.24
2023-05-08T01:38:16.462Z,8.80
2023-05-08T01:40:55.082Z,8.93
2023-05-08T01:43:31.297Z,9.00
2023-05-08T01:46:08.045Z,8.57
2023-05-08T01:48:49.526Z,9.00
2023-05-08T01:51:22.966Z,8.91
2023-05-08T01:53:57.109Z,8.90
2023-05-08T01:56:30.053Z,9.13
2023-05-08T01:59:02.112Z,9.08
2023-05-08T02:01:34.789Z,9.08
2023-05-08T02:04:08.286Z,8.93
2023-05-08T02:06:41.716Z,8.86
2023-05-08T02:09:12.063Z,8.71
2023-05-08T02:11:45.200Z,8.94
2023-05-08T02:14:22.409Z,8.96
2023-05-08T02:16:53.953Z,8.85
2023-05-08T02:19:26.870Z,8.83
2023-05-08T02:21:59.870Z,8.97
2023-05-08T02:24:29.234Z,8.94
2023-05-08T02:27:00.484Z,8.99
2023-05-08T02:29:30.612Z,8.97
2023-05-08T02:32:02.683Z,8.99
2023-05-08T02:34:33.840Z,8.91
2023-05-08T02:37:05.026Z,8.85
2023-05-08T02:39:36.532Z,8.81
2023-05-08T02:42:06.379Z,8.84
2023-05-08T02:44:35.680Z,8.99
2023-05-08T02:47:16.195Z,8.97
2023-05-08T02:49:53.391Z,8.96
2023-05-08T02:52:29.879Z,8.93
2023-05-08T02:55:03.133Z,9.24
2023-05-08T02:57:40.987Z,9.18
2023-05-08T03:00:19.006Z,9.37
2023-05-08T03:02:57.062Z,9.21
2023-05-08T03:05:38.815Z,9.18
2023-05-08T03:08:15.322Z,9.13
2023-05-08T03:10:48.391Z,9.06
2023-05-08T03:13:20.903Z,9.23
2023-05-08T03:15:56.651Z,9.37
2023-05-08T03:18:32.290Z,9.36
2023-05-08T03:21:04.626Z,9.45
2023-05-08T03:23:37.213Z,9.40
2023-05-08T03:26:07.255Z,9.22
2023-05-08T03:28:40.415Z,9.51
2023-05-08T03:31:11.526Z,9.54
2023-05-08T03:34:03.697Z,9.61
2023-05-08T03:36:35.618Z,9.52
2023-05-08T03:39:05.986Z,9.60
2023-05-08T03:41:35.714Z,9.65
2023-05-08T03:44:05.537Z,9.86
2023-05-08T03:46:38.143Z,9.70
2023-05-08T03:49:10.245Z,9.96
2023-05-08T03:51:42.677Z,9.94
2023-05-08T03:54:12.064Z,9.88
2023-05-08T03:56:41.228Z,10.10
2023-05-08T03:59:17.268Z,10.20
2023-05-08T04:01:55.555Z,10.19
2023-05-08T04:04:35.073Z,10.04
2023-05-08T04:07:11.822Z,10.23
2023-05-08T04:09:56.899Z,10.32
2023-05-08T04:12:38.609Z,10.44
2023-05-08T04:20:04.769Z,10.55
2023-05-08T04:22:36.877Z,10.39
2023-05-08T04:25:09.213Z,9.99
2023-05-08T04:27:43.737Z,10.65
2023-05-08T04:30:17.580Z,10.62
2023-05-08T04:32:58.054Z,11.03
2023-05-08T04:35:28.093Z,11.31
2023-05-08T04:38:00.485Z,10.81
2023-05-08T04:40:29.916Z,11.10
2023-05-08T04:43:00.529Z,11.07
2023-05-08T04:45:30.041Z,11.17
2023-05-08T04:47:59.436Z,10.27
2023-05-08T04:50:28.772Z,11.23
2023-05-08T04:52:59.672Z,10.41
2023-05-08T04:55:29.105Z,11.00
2023-05-08T04:57:58.454Z,11.18
2023-05-08T05:00:28.020Z,10.92
2023-05-08T05:02:57.821Z,10.81
2023-05-08T05:05:30.099Z,10.65
2023-05-08T05:08:01.077Z,10.90
2023-05-08T05:10:30.607Z,10.97
2023-05-08T05:12:59.911Z,11.14
2023-05-08T05:15:29.552Z,11.01
2023-05-08T05:17:59.354Z,10.88
2023-05-08T05:20:29.067Z,11.33
2023-05-08T05:22:58.564Z,11.85
2023-05-08T05:25:29.800Z,12.13
2023-05-08T05:27:59.655Z,12.21
2023-05-08T05:30:29.286Z,12.01
2023-05-08T05:32:59.446Z,12.18
2023-05-08T05:35:29.063Z,11.93
2023-05-08T05:37:59.576Z,11.57
2023-05-08T05:40:30.637Z,11.43
2023-05-08T05:43:00.352Z,12.11
2023-05-08T05:45:32.555Z,11.60
2023-05-08T05:48:03.692Z,11.26
2023-05-08T05:50:33.877Z,11.51
2023-05-08T05:53:03.234Z,11.48
2023-05-08T05:55:34.454Z,11.67
2023-05-08T05:58:04.617Z,11.79
2023-05-08T06:00:35.207Z,11.97
2023-05-08T06:03:05.829Z,11.63
2023-05-08T06:05:35.556Z,11.79
2023-05-08T06:08:05.878Z,11.63
2023-05-08T06:10:41.285Z,11.68
2023-05-08T06:13:11.422Z,11.66
2023-05-08T06:15:40.738Z,12.11
2023-05-08T06:18:10.667Z,12.08
2023-05-08T06:20:40.640Z,13.07
2023-05-08T06:23:10.175Z,12.74
2023-05-08T06:25:40.597Z,13.13
2023-05-08T06:28:11.951Z,12.95
2023-05-08T06:30:41.251Z,13.51
2023-05-08T06:33:11.466Z,13.16
2023-05-08T06:35:40.857Z,13.44
2023-05-08T06:38:10.575Z,13.33
2023-05-08T06:40:44.498Z,13.57
2023-05-08T06:43:14.224Z,13.60
2023-05-08T06:45:45.051Z,13.37
2023-05-08T06:48:14.458Z,13.18
2023-05-08T06:50:43.603Z,13.44
2023-05-08T06:53:12.728Z,13.45
2023-05-08T06:55:45.587Z,13.51
2023-05-08T06:58:15.385Z,13.04
2023-05-08T07:00:44.749Z,12.62
2023-05-08T07:03:15.085Z,13.15
2023-05-08T07:05:44.383Z,13.61
2023-05-08T07:08:16.470Z,13.66
2023-05-08T07:10:47.138Z,13.52
2023-05-08T07:13:22.292Z,13.56
2023-05-08T07:15:51.809Z,13.20
2023-05-08T07:18:21.115Z,12.69
2023-05-08T07:20:52.575Z,13.24
2023-05-08T07:23:21.824Z,13.71
2023-05-08T07:25:53.195Z,13.50
2023-05-08T07:28:22.747Z,13.62
2023-05-08T07:30:55.149Z,13.51
2023-05-08T07:33:24.709Z,13.22
2023-05-08T07:35:54.216Z,13.37
2023-05-08T07:38:23.809Z,13.50
2023-05-08T07:40:57.297Z,13.21
2023-05-08T07:43:32.799Z,13.57
2023-05-08T07:46:04.504Z,14.24
2023-05-08T07:48:35.351Z,14.24
2023-05-08T07:51:04.831Z,14.11
2023-05-08T07:53:59.604Z,14.33
2023-05-08T07:56:31.415Z,14.15
2023-05-08T07:59:00.964Z,14.04
2023-05-08T08:01:32.210Z,14.09
2023-05-08T08:04:02.534Z,14.39
2023-05-08T08:06:32.134Z,14.24
2023-05-08T08:09:03.963Z,15.19
2023-05-08T08:11:39.872Z,15.07
2023-05-08T08:14:09.367Z,14.88
2023-05-08T08:16:42.728Z,15.32
2023-05-08T08:19:16.334Z,14.20
2023-05-08T08:21:46.397Z,14.17
2023-05-08T08:24:15.443Z,14.73
2023-05-08T08:26:46.582Z,15.00
2023-05-08T08:29:15.729Z,15.38
2023-05-08T08:31:45.020Z,13.89
2023-05-08T08:34:14.647Z,14.33
2023-05-08T08:36:44.468Z,14.72
2023-05-08T08:39:15.333Z,14.79
2023-05-08T08:41:46.347Z,16.31
2023-05-08T08:44:23.693Z,16.12
2023-05-08T08:46:54.117Z,16.17
2023-05-08T08:49:29.294Z,15.81
2023-05-08T08:52:03.145Z,16.30
2023-05-08T08:54:36.366Z,16.62
2023-05-08T08:57:09.159Z,16.58
2023-05-08T08:59:40.021Z,16.34
2023-05-08T09:02:18.034Z,16.06
2023-05-08T09:04:51.860Z,16.74
2023-05-08T09:07:25.531Z,16.97
2023-05-08T09:10:27.010Z,17.72
2023-05-08T09:12:58.367Z,17.13
2023-05-08T09:15:27.835Z,18.10
2023-05-08T09:17:57.450Z,19.48
2023-05-08T09:20:30.376Z,19.30
2023-05-08T09:23:03.084Z,18.82
2023-05-08T09:25:47.104Z,18.26
2023-05-08T09:28:22.950Z,18.45
2023-05-08T09:30:56.550Z,18.01
2023-05-08T09:33:27.864Z,17.76
2023-05-08T09:36:00.903Z,17.59
2023-05-08T09:38:34.810Z,18.14
2023-05-08T09:41:12.678Z,16.89
2023-05-08T09:44:01.121Z,17.12
2023-05-08T09:46:31.241Z,17.50
2023-05-08T09:49:01.960Z,17.50
2023-05-08T09:51:33.013Z,17.32
2023-05-08T09:54:05.976Z,17.84
2023-05-08T09:56:37.308Z,17.38
2023-05-08T09:59:27.018Z,17.36
2023-05-08T10:01:58.197Z,17.73
2023-05-08T10:04:35.927Z,17.99
2023-05-08T10:07:05.843Z,16.55
2023-05-08T10:09:47.094Z,16.23
2023-05-08T10:12:22.539Z,17.00
2023-05-08T10:14:54.333Z,16.69
2023-05-08T10:17:29.146Z,16.82
2023-05-08T10:20:02.285Z,17.02
2023-05-08T10:22:36.865Z,16.67
2023-05-08T10:25:15.762Z,18.22
2023-05-08T10:27:52.639Z,19.34
2023-05-08T10:30:26.627Z,17.65
2023-05-08T10:32:59.432Z,18.55
2023-05-08T10:35:31.773Z,18.84
2023-05-08T10:38:06.492Z,18.10
2023-05-08T10:40:42.489Z,17.77
2023-05-08T10:43:13.034Z,22.06
2023-05-08T10:45:44.469Z,19.95
2023-05-08T10:48:25.134Z,17.74
2023-05-08T10:51:02.692Z,18.53
2023-05-08T10:53:40.236Z,20.92
2023-05-08T10:56:10.155Z,20.33
2023-05-08T10:58:40.500Z,18.47
2023-05-08T11:02:08.546Z,17.70
2023-05-08T11:04:44.596Z,17.06
2023-05-08T11:07:14.128Z,17.81
2023-05-08T11:09:48.630Z,19.16
2023-05-08T11:12:22.687Z,19.92
2023-05-08T11:15:06.626Z,18.01
2023-05-08T11:17:36.112Z,17.76
2023-05-08T11:20:10.524Z,18.14
2023-05-08T11:22:49.805Z,19.52
2023-05-08T11:25:37.698Z,17.88
2023-05-08T11:28:11.645Z,15.96
2023-05-08T11:30:41.586Z,16.61
2023-05-08T11:33:21.072Z,17.42
2023-05-08T11:36:03.040Z,17.33
2023-05-08T11:42:37.308Z,17.64
2023-05-08T11:45:08.460Z,17.72
2023-05-08T11:47:40.588Z,18.86
2023-05-08T11:50:11.509Z,19.67
2023-05-08T11:52:46.514Z,18.59
2023-05-08T11:55:15.964Z,18.16
2023-05-08T11:57:48.494Z,18.93
2023-05-08T12:00:18.750Z,19.61
2023-05-08T12:02:48.299Z,19.25
2023-05-08T12:05:31.861Z,19.99
2023-05-08T12:08:02.303Z,21.57
2023-05-08T12:10:31.884Z,22.64
2023-05-08T12:13:16.940Z,22.73
2023-05-08T12:15:54.657Z,24.57
2023-05-08T12:18:28.716Z,21.56
2023-05-08T12:21:00.241Z,22.27
2023-05-08T12:23:37.200Z,26.77
2023-05-08T12:26:07.173Z,26.42
2023-05-08T12:28:42.052Z,26.92
2023-05-08T12:31:24.353Z,26.63
2023-05-08T12:33:53.749Z,23.46
2023-05-08T12:36:23.536Z,21.75
2023-05-08T12:38:54.956Z,20.90
2023-05-08T12:41:26.664Z,20.49
2023-05-08T12:43:57.322Z,19.32
2023-05-08T12:46:28.196Z,18.68
2023-05-08T12:49:02.820Z,17.80
2023-05-08T12:51:32.675Z,18.83
2023-05-08T12:54:03.998Z,23.56
2023-05-08T12:56:37.137Z,23.86
2023-05-08T12:59:06.368Z,22.33
2023-05-08T13:01:35.873Z,20.97
2023-05-08T13:04:09.114Z,21.08
2023-05-08T13:06:40.126Z,19.85
2023-05-08T13:09:23.359Z,19.27
2023-05-08T13:11:53.375Z,18.52
2023-05-08T13:14:22.990Z,17.61
2023-05-08T13:16:55.432Z,17.52
2023-05-08T13:19:25.260Z,17.07
2023-05-08T13:21:58.204Z,17.14
2023-05-08T13:24:29.245Z,16.81
2023-05-08T13:26:59.008Z,16.78
2023-05-08T13:29:28.605Z,16.45
2023-05-08T13:32:09.377Z,16.68
2023-05-08T13:34:47.304Z,15.42
2023-05-08T13:37:24.385Z,17.36
2023-05-08T13:39:55.477Z,17.38
2023-05-08T13:42:25.401Z,17.82
2023-05-08T13:44:54.699Z,18.15
2023-05-08T13:47:24.590Z,18.62
2023-05-08T13:49:54.166Z,18.45
2023-05-08T13:52:25.325Z,17.40
2023-05-08T13:54:59.469Z,16.96
2023-05-08T13:57:28.887Z,18.73
2023-05-08T13:59:58.313Z,20.02
2023-05-08T14:02:28.087Z,21.52
2023-05-08T14:04:57.669Z,20.77
2023-05-08T14:07:28.221Z,18.49
2023-05-08T14:09:58.879Z,17.91
2023-05-08T14:12:28.966Z,17.88
2023-05-08T14:15:00.795Z,17.83
2023-05-08T14:17:34.319Z,18.07
2023-05-08T14:20:06.880Z,17.83
2023-05-08T14:22:36.803Z,17.14
2023-05-08T14:25:09.794Z,17.06
2023-05-08T14:27:39.605Z,17.18
2023-05-08T14:30:11.987Z,17.03
2023-05-08T14:32:46.813Z,17.51
2023-05-08T14:35:19.584Z,18.27
2023-05-08T14:37:49.261Z,19.10
2023-05-08T14:40:22.055Z,18.50
2023-05-08T14:42:53.075Z,17.81
2023-05-08T14:45:25.381Z,17.76
2023-05-08T14:47:57.392Z,18.60
2023-05-08T14:50:29.987Z,17.09
2023-05-08T14:53:27.724Z,17.45
2023-05-08T14:56:08.014Z,17.12
2023-05-08T14:58:37.418Z,16.54
2023-05-08T15:01:12.883Z,16.01
2023-05-08T15:03:43.099Z,16.03
2023-05-08T15:06:53.284Z,15.68
2023-05-08T15:09:36.296Z,16.56
2023-05-08T15:12:22.507Z,17.17
2023-05-08T15:17:58.650Z,19.88
2023-05-08T15:24:36.199Z,19.77
2023-05-08T15:27:20.417Z,20.35
2023-05-08T15:33:11.730Z,17.64
2023-05-08T15:35:44.153Z,17.45
2023-05-08T15:38:13.673Z,16.68
2023-05-08T15:40:45.316Z,15.59
2023-05-08T15:43:23.935Z,15.89
2023-05-08T15:45:55.897Z,15.69
2023-05-08T15:48:28.900Z,15.39
2023-05-08T15:51:00.404Z,15.27
2023-05-08T15:53:30.693Z,14.10
2023-05-08T15:56:01.202Z,15.14
2023-05-08T15:58:32.552Z,15.12
2023-05-08T16:01:08.851Z,14.70
2023-05-08T16:03:42.735Z,14.90
2023-05-08T16:06:12.550Z,14.74
2023-05-08T16:08:44.058Z,14.40
2023-05-08T16:11:14.036Z,14.49
2023-05-08T16:13:43.779Z,14.35
2023-05-08T16:16:15.152Z,14.24
2023-05-08T16:18:47.045Z,14.20
2023-05-08T16:21:17.028Z,14.03
2023-05-08T16:23:46.646Z,14.69
2023-05-08T16:26:23.057Z,14.66
2023-05-08T16:28:54.194Z,14.42
2023-05-08T16:31:28.147Z,13.77
2023-05-08T16:33:58.931Z,14.42
2023-05-08T16:36:31.829Z,14.04
2023-05-08T16:39:02.540Z,13.87
2023-05-08T16:41:35.955Z,13.97
2023-05-08T16:44:07.918Z,13.55
2023-05-08T16:46:40.949Z,13.88
2023-05-08T16:49:12.515Z,13.96
2023-05-08T16:51:44.529Z,13.50
2023-05-08T16:54:14.498Z,13.66
2023-05-08T16:56:48.534Z,13.45
2023-05-08T16:59:20.429Z,13.47
2023-05-08T17:01:51.447Z,13.24
2023-05-08T17:04:21.965Z,13.29
2023-05-08T17:06:54.202Z,12.89
2023-05-08T17:09:25.413Z,12.84
2023-05-08T17:11:54.745Z,12.96
2023-05-08T17:14:25.145Z,12.91
2023-05-08T17:16:56.915Z,12.53
2023-05-08T17:19:27.363Z,12.35
2023-05-08T17:21:58.954Z,12.38
2023-05-08T17:24:30.921Z,12.56
2023-05-08T17:27:00.831Z,12.50
2023-05-08T17:29:33.811Z,12.30
2023-05-08T17:32:05.218Z,12.02
2023-05-08T17:34:37.183Z,12.11
2023-05-08T17:37:07.838Z,12.18
2023-05-08T17:39:38.644Z,11.89
2023-05-08T17:42:07.870Z,11.86
2023-05-08T17:44:37.384Z,12.03
2023-05-08T17:47:09.263Z,11.88
2023-05-08T17:49:38.755Z,11.95
2023-05-08T17:52:10.301Z,11.79
2023-05-08T17:54:39.438Z,11.79
2023-05-08T17:57:18.076Z,11.73
2023-05-08T17:59:49.629Z,11.52
2023-05-08T18:02:21.114Z,11.70
2023-05-08T18:04:50.502Z,11.51
2023-05-08T18:07:20.238Z,11.54
2023-05-08T18:09:52.216Z,11.39
2023-05-08T18:12:21.771Z,11.39
2023-05-08T18:14:54.091Z,11.49
2023-05-08T18:17:25.034Z,11.43
2023-05-08T18:19:58.772Z,11.29
2023-05-08T18:22:29.682Z,11.31
2023-05-08T18:25:00.729Z,11.05
2023-05-08T18:27:33.583Z,10.98
2023-05-08T18:30:03.654Z,11.02
2023-05-08T18:32:38.570Z,10.91
2023-05-08T18:35:09.053Z,11.03
2023-05-08T18:37:38.995Z,10.82
2023-05-08T18:40:10.158Z,10.49
2023-05-08T18:42:40.722Z,10.82
2023-05-08T18:45:12.130Z,10.69
2023-05-08T18:47:42.835Z,10.65
2023-05-08T18:50:12.538Z,10.69
2023-05-08T18:52:42.271Z,10.48
2023-05-08T18:55:11.989Z,10.35
2023-05-08T18:57:45.864Z,10.14
2023-05-08T19:00:17.626Z,9.18
2023-05-08T19:02:48.809Z,10.41
2023-05-08T19:05:19.023Z,10.39
2023-05-08T19:07:48.353Z,10.27
2023-05-08T19:10:21.167Z,10.26
2023-05-08T19:12:51.075Z,10.08
2023-05-08T19:15:20.619Z,10.01
2023-05-08T19:17:52.930Z,9.78
2023-05-08T19:20:22.614Z,9.79
2023-05-08T19:22:51.875Z,9.82
2023-05-08T19:25:21.229Z,9.83
2023-05-08T19:27:50.944Z,9.79
2023-05-08T19:30:22.854Z,9.87
2023-05-08T19:32:54.206Z,9.29
2023-05-08T19:35:28.951Z,9.68
2023-05-08T19:38:16.348Z,9.65
2023-05-08T19:40:55.362Z,10.02
2023-05-08T19:43:26.801Z,10.13
2023-05-08T19:45:57.005Z,9.73
2023-05-08T19:48:35.412Z,9.78
2023-05-08T19:51:10.972Z,9.61
2023-05-08T19:53:40.959Z,9.76
2023-05-08T19:56:10.370Z,9.82
2023-05-08T19:58:39.822Z,9.73
2023-05-08T20:01:08.916Z,9.62
2023-05-08T20:03:39.512Z,9.74
2023-05-08T20:06:09.152Z,9.70
2023-05-08T20:08:38.721Z,9.75
2023-05-08T20:11:11.793Z,9.76
2023-05-08T20:13:41.401Z,9.77
2023-05-08T20:16:10.823Z,9.61
2023-05-08T20:18:41.871Z,9.59
2023-05-08T20:21:11.244Z,9.63
2023-05-08T20:23:47.120Z,9.67
2023-05-08T20:26:19.103Z,9.55
2023-05-08T20:28:49.183Z,9.56
2023-05-08T20:31:18.582Z,9.72
2023-05-08T20:33:54.369Z,9.70
2023-05-08T20:36:25.505Z,9.53
2023-05-08T20:38:54.983Z,9.31
2023-05-08T20:41:24.278Z,9.42
2023-05-08T20:43:54.203Z,9.44
2023-05-08T20:46:32.338Z,9.37
2023-05-08T20:49:04.158Z,9.07
2023-05-08T20:51:33.947Z,9.32
2023-05-08T20:54:03.173Z,9.22
2023-05-08T20:56:32.412Z,9.17
2023-05-08T20:59:03.047Z,9.36
2023-05-08T21:01:32.545Z,9.24
2023-05-08T21:04:03.578Z,9.22
2023-05-08T21:06:32.815Z,9.21
2023-05-08T21:09:06.492Z,8.77
2023-05-08T21:11:36.305Z,9.29
2023-05-08T21:14:05.647Z,9.14
2023-05-08T21:16:38.373Z,9.16
2023-05-08T21:19:13.143Z,8.84
2023-05-08T21:21:45.840Z,8.79
2023-05-08T21:24:15.658Z,8.70
2023-05-08T21:26:45.452Z,8.56
2023-05-08T21:29:15.104Z,8.55
2023-05-08T21:31:44.246Z,8.35
2023-05-08T21:34:15.584Z,8.33
2023-05-08T21:36:44.707Z,8.24
2023-05-08T21:39:14.925Z,8.09
2023-05-08T21:41:44.579Z,8.26
2023-05-08T21:44:15.452Z,8.15
2023-05-08T21:46:45.304Z,8.05
2023-05-08T21:49:15.840Z,8.15
2023-05-08T21:51:46.240Z,7.98
2023-05-08T21:54:17.827Z,7.99
2023-05-08T21:56:46.894Z,7.76
2023-05-08T21:59:16.055Z,7.80
2023-05-08T22:01:48.454Z,7.82
2023-05-08T22:04:19.348Z,7.49
2023-05-08T22:06:48.582Z,7.78
2023-05-08T22:09:17.972Z,7.39
2023-05-08T22:11:47.289Z,7.73
2023-05-08T22:14:16.646Z,7.84
2023-05-08T22:16:46.362Z,7.82
2023-05-08T22:19:15.941Z,7.87
2023-05-08T22:21:47.257Z,7.92
2023-05-08T22:24:16.917Z,7.92
2023-05-08T22:26:46.050Z,8.01
2023-05-08T22:29:16.678Z,7.97
2023-05-08T22:31:47.442Z,7.90
2023-05-08T22:34:17.773Z,7.78
2023-05-08T22:36:48.404Z,7.88
2023-05-08T22:39:17.536Z,8.09
2023-05-08T22:41:47.500Z,7.75
2023-05-08T22:44:16.770Z,7.77
2023-05-08T22:46:46.138Z,7.63
2023-05-08T22:49:16.260Z,7.51
2023-05-08T22:51:45.864Z,7.71
2023-05-08T22:54:16.304Z,7.69
2023-05-08T22:56:45.786Z,7.55
2023-05-08T22:59:14.738Z,7.70
2023-05-08T23:01:44.066Z,7.64
2023-05-08T23:04:15.742Z,7.45
2023-05-08T23:06:45.463Z,7.54
2023-05-08T23:09:16.173Z,7.53
2023-05-08T23:11:45.371Z,7.45
2023-05-08T23:14:14.584Z,7.44
2023-05-08T23:16:46.294Z,7.26
2023-05-08T23:19:15.347Z,7.49
2023-05-08T23:21:44.530Z,6.89
2023-05-08T23:24:13.541Z,7.36
2023-05-08T23:26:44.623Z,7.32
2023-05-08T23:29:13.955Z,7.44
2023-05-08T23:31:43.295Z,7.42
2023-05-08T23:34:12.514Z,7.23
2023-05-08T23:36:42.288Z,7.78
2023-05-08T23:39:11.520Z,7.88
2023-05-08T23:41:41.044Z,7.98
2023-05-08T23:44:11.716Z,8.03
2023-05-08T23:46:41.085Z,7.98
2023-05-08T23:49:10.407Z,8.14
2023-05-08T23:51:39.647Z,8.06
2023-05-08T23:54:09.106Z,8.24
2023-05-08T23:56:38.180Z,8.14
2023-05-08T23:59:07.805Z,8.07
